createdAt,value
2019-02-06T00:00:06.024Z,32.31
2019-02-06T00:01:06.022Z,33.50
2019-02-06T00:02:05.999Z,33.11
2019-02-06T00:03:05.997Z,32.81
2019-02-06T00:04:06.009Z,33.31
2019-02-06T00:05:13.919Z,33.71
2019-02-06T00:06:05.945Z,32.81
2019-02-06T00:07:05.937Z,32.89
2019-02-06T00:08:05.947Z,33.71
2019-02-06T00:09:05.942Z,32.91
2019-02-06T00:10:05.957Z,33.41
2019-02-06T00:11:05.896Z,32.79
2019-02-06T00:12:05.890Z,33.39
2019-02-06T00:13:05.909Z,32.50
2019-02-06T00:14:05.888Z,34.51
2019-02-06T00:15:05.891Z,33.00
2019-02-06T00:16:06.023Z,33.00
2019-02-06T00:17:05.910Z,33.71
2019-02-06T00:18:05.877Z,33.80
2019-02-06T00:19:05.875Z,33.51
2019-02-06T00:20:05.888Z,33.91
2019-02-06T00:21:06.024Z,33.59
2019-02-06T00:22:05.808Z,34.01
2019-02-06T00:23:05.832Z,33.71
2019-02-06T00:24:05.796Z,34.11
2019-02-06T00:25:05.839Z,33.89
2019-02-06T00:26:05.781Z,33.01
2019-02-06T00:27:05.761Z,33.20
2019-02-06T00:28:05.747Z,33.50
2019-02-06T00:29:05.700Z,33.91
2019-02-06T00:30:05.718Z,33.70
2019-02-06T00:31:05.691Z,33.59
2019-02-06T00:32:05.684Z,33.59
2019-02-06T00:33:05.676Z,33.50
2019-02-06T00:34:05.731Z,33.01
2019-02-06T00:35:05.662Z,33.20
2019-02-06T00:36:05.619Z,33.61
2019-02-06T00:37:05.631Z,32.79
2019-02-06T00:38:05.703Z,33.39
2019-02-06T00:39:05.870Z,33.70
2019-02-06T00:40:05.608Z,33.59
2019-02-06T00:41:05.573Z,33.89
2019-02-06T00:42:05.552Z,33.39
2019-02-06T00:43:05.560Z,33.39
2019-02-06T00:44:05.533Z,33.39
2019-02-06T00:45:05.560Z,33.20
2019-02-06T00:46:05.515Z,33.80
2019-02-06T00:47:05.571Z,33.39
2019-02-06T00:48:05.497Z,33.29
2019-02-06T00:49:05.494Z,33.00
2019-02-06T00:50:05.523Z,33.70
2019-02-06T00:51:05.480Z,33.09
2019-02-06T00:52:05.445Z,33.80
2019-02-06T00:53:05.445Z,34.00
2019-02-06T00:54:05.421Z,33.20
2019-02-06T00:55:05.452Z,33.39
2019-02-06T00:56:05.403Z,33.59
2019-02-06T00:57:05.426Z,33.20
2019-02-06T00:58:05.388Z,33.29
2019-02-06T00:59:05.374Z,33.29
2019-02-06T01:00:05.427Z,33.59
2019-02-06T01:01:05.369Z,33.70
2019-02-06T01:02:05.345Z,33.50
2019-02-06T01:03:05.329Z,32.89
2019-02-06T01:04:05.317Z,33.20
2019-02-06T01:05:05.336Z,32.89
2019-02-06T01:06:05.296Z,33.20
2019-02-06T01:07:05.302Z,33.00
2019-02-06T01:08:05.276Z,33.00
2019-02-06T01:09:05.267Z,33.00
2019-02-06T01:10:05.403Z,32.98
2019-02-06T01:11:05.256Z,32.59
2019-02-06T01:12:05.240Z,32.78
2019-02-06T01:13:05.223Z,33.09
2019-02-06T01:14:05.214Z,33.29
2019-02-06T01:15:05.244Z,33.29
2019-02-06T01:16:05.197Z,33.00
2019-02-06T01:17:05.213Z,33.09
2019-02-06T01:18:05.214Z,33.00
2019-02-06T01:19:05.219Z,33.00
2019-02-06T01:20:05.285Z,31.99
2019-02-06T01:21:05.171Z,33.09
2019-02-06T01:22:05.151Z,32.79
2019-02-06T01:23:05.231Z,33.18
2019-02-06T01:24:05.141Z,32.79
2019-02-06T01:25:05.204Z,33.09
2019-02-06T01:26:05.111Z,32.70
2019-02-06T01:27:05.149Z,33.00
2019-02-06T01:28:05.070Z,32.89
2019-02-06T01:29:05.051Z,33.39
2019-02-06T01:30:05.036Z,32.59
2019-02-06T01:31:05.036Z,33.29
2019-02-06T01:32:05.041Z,32.59
2019-02-06T01:33:05.005Z,33.20
2019-02-06T01:34:05.000Z,32.79
2019-02-06T01:35:04.987Z,32.79
2019-02-06T01:36:04.992Z,32.78
2019-02-06T01:37:04.978Z,33.09
2019-02-06T01:38:04.950Z,32.58
2019-02-06T01:39:04.957Z,32.38
2019-02-06T01:40:04.943Z,32.58
2019-02-06T01:41:04.939Z,33.28
2019-02-06T01:42:04.913Z,32.98
2019-02-06T01:43:04.888Z,32.79
2019-02-06T01:44:04.880Z,32.98
2019-02-06T01:45:04.886Z,32.88
2019-02-06T01:46:04.898Z,32.58
2019-02-06T01:47:04.863Z,33.00
2019-02-06T01:48:04.851Z,32.48
2019-02-06T01:49:04.828Z,32.78
2019-02-06T01:50:04.814Z,32.50
2019-02-06T01:51:04.925Z,33.00
2019-02-06T01:52:04.792Z,32.68
2019-02-06T01:53:04.788Z,32.70
2019-02-06T01:54:04.791Z,32.38
2019-02-06T01:55:04.785Z,32.68
2019-02-06T01:56:04.791Z,32.68
2019-02-06T01:57:04.738Z,32.18
2019-02-06T01:58:04.743Z,32.78
2019-02-06T01:59:04.731Z,32.50
2019-02-06T02:00:04.713Z,32.40
2019-02-06T02:01:04.724Z,32.59
2019-02-06T02:02:04.710Z,32.70
2019-02-06T02:03:04.683Z,33.09
2019-02-06T02:04:05.395Z,33.00
2019-02-06T02:05:05.342Z,32.50
2019-02-06T02:06:04.677Z,33.00
2019-02-06T02:07:04.630Z,32.28
2019-02-06T02:08:04.631Z,32.79
2019-02-06T02:09:04.618Z,32.59
2019-02-06T02:10:04.616Z,31.70
2019-02-06T02:11:04.644Z,32.79
2019-02-06T02:12:04.586Z,32.50
2019-02-06T02:13:04.586Z,32.68
2019-02-06T02:14:04.568Z,32.50
2019-02-06T02:15:04.617Z,32.29
2019-02-06T02:16:04.569Z,32.70
2019-02-06T02:17:04.565Z,31.49
2019-02-06T02:18:04.579Z,32.29
2019-02-06T02:19:04.548Z,32.29
2019-02-06T02:20:04.531Z,32.40
2019-02-06T02:21:04.657Z,32.29
2019-02-06T02:22:04.609Z,32.20
2019-02-06T02:23:04.492Z,31.79
2019-02-06T02:24:04.510Z,31.70
2019-02-06T02:25:04.478Z,32.79
2019-02-06T02:26:04.535Z,32.79
2019-02-06T02:27:04.454Z,31.70
2019-02-06T02:28:04.411Z,32.70
2019-02-06T02:29:04.404Z,32.70
2019-02-06T02:30:04.419Z,32.59
2019-02-06T02:31:04.422Z,32.50
2019-02-06T02:32:04.367Z,32.70
2019-02-06T02:33:04.349Z,32.70
2019-02-06T02:34:04.349Z,32.59
2019-02-06T02:35:04.337Z,32.29
2019-02-06T02:36:14.881Z,32.79
2019-02-06T02:37:04.310Z,31.49
2019-02-06T02:38:04.299Z,32.50
2019-02-06T02:39:04.599Z,32.59
2019-02-06T02:40:04.297Z,31.79
2019-02-06T02:41:04.292Z,32.70
2019-02-06T02:42:04.270Z,32.59
2019-02-06T02:43:04.363Z,31.79
2019-02-06T02:44:04.250Z,32.70
2019-02-06T02:45:04.221Z,32.40
2019-02-06T02:46:04.863Z,33.00
2019-02-06T02:47:04.206Z,32.59
2019-02-06T02:48:04.186Z,32.59
2019-02-06T02:49:04.210Z,32.79
2019-02-06T02:50:04.169Z,32.50
2019-02-06T02:51:04.192Z,32.70
2019-02-06T02:52:04.146Z,32.50
2019-02-06T02:53:04.132Z,32.40
2019-02-06T02:54:04.136Z,32.29
2019-02-06T02:55:04.121Z,32.29
2019-02-06T02:56:04.122Z,32.29
2019-02-06T02:57:04.104Z,32.29
2019-02-06T02:58:04.085Z,32.40
2019-02-06T02:59:04.071Z,32.59
2019-02-06T03:00:04.084Z,31.90
2019-02-06T03:01:04.096Z,32.18
2019-02-06T03:02:04.053Z,32.59
2019-02-06T03:03:04.036Z,32.29
2019-02-06T03:04:04.028Z,32.50
2019-02-06T03:05:04.017Z,32.59
2019-02-06T03:06:04.034Z,32.20
2019-02-06T03:07:03.989Z,32.50
2019-02-06T03:08:03.969Z,33.20
2019-02-06T03:09:04.011Z,32.20
2019-02-06T03:10:03.958Z,32.70
2019-02-06T03:11:03.949Z,32.09
2019-02-06T03:12:03.971Z,32.50
2019-02-06T03:13:03.944Z,31.90
2019-02-06T03:14:03.907Z,31.79
2019-02-06T03:15:03.913Z,31.90
2019-02-06T03:16:03.890Z,32.50
2019-02-06T03:17:03.966Z,32.59
2019-02-06T03:18:04.188Z,32.09
2019-02-06T03:19:03.929Z,32.50
2019-02-06T03:20:03.870Z,32.09
2019-02-06T03:21:03.862Z,31.79
2019-02-06T03:22:03.916Z,32.79
2019-02-06T03:23:03.909Z,31.90
2019-02-06T03:24:03.861Z,31.59
2019-02-06T03:25:03.828Z,32.59
2019-02-06T03:26:03.928Z,31.59
2019-02-06T03:27:03.866Z,31.70
2019-02-06T03:28:03.756Z,31.79
2019-02-06T03:29:03.743Z,32.09
2019-02-06T03:30:03.768Z,32.29
2019-02-06T03:31:03.744Z,32.09
2019-02-06T03:32:03.753Z,32.09
2019-02-06T03:33:04.578Z,32.51
2019-02-06T03:34:05.030Z,32.50
2019-02-06T03:35:03.689Z,31.70
2019-02-06T03:36:03.693Z,32.40
2019-02-06T03:37:03.691Z,31.59
2019-02-06T03:38:03.648Z,31.59
2019-02-06T03:39:03.664Z,32.09
2019-02-06T03:40:03.624Z,31.99
2019-02-06T03:41:03.694Z,32.20
2019-02-06T03:42:03.652Z,31.79
2019-02-06T03:43:03.596Z,32.09
2019-02-06T03:44:03.581Z,32.40
2019-02-06T03:45:03.572Z,31.99
2019-02-06T03:46:03.592Z,32.70
2019-02-06T03:47:03.581Z,32.50
2019-02-06T03:48:03.551Z,32.20
2019-02-06T03:49:03.550Z,31.70
2019-02-06T03:50:03.527Z,31.79
2019-02-06T03:51:03.511Z,32.20
2019-02-06T03:52:03.537Z,31.90
2019-02-06T03:53:03.498Z,32.09
2019-02-06T03:54:03.482Z,31.70
2019-02-06T03:55:03.482Z,32.50
2019-02-06T03:56:03.484Z,32.21
2019-02-06T03:57:03.552Z,31.31
2019-02-06T03:58:03.430Z,32.11
2019-02-06T03:59:03.423Z,31.61
2019-02-06T04:00:03.415Z,32.01
2019-02-06T04:01:03.407Z,31.79
2019-02-06T04:02:03.418Z,32.01
2019-02-06T04:03:03.379Z,32.09
2019-02-06T04:04:03.383Z,31.71
2019-02-06T04:05:03.349Z,31.11
2019-02-06T04:06:03.359Z,31.41
2019-02-06T04:07:03.357Z,31.81
2019-02-06T04:08:03.344Z,31.71
2019-02-06T04:09:03.325Z,32.01
2019-02-06T04:10:03.309Z,32.01
2019-02-06T04:11:03.337Z,31.71
2019-02-06T04:12:03.317Z,31.81
2019-02-06T04:13:03.271Z,31.61
2019-02-06T04:14:03.263Z,32.51
2019-02-06T04:15:03.243Z,31.21
2019-02-06T04:16:03.427Z,32.01
2019-02-06T04:17:03.333Z,31.81
2019-02-06T04:18:03.244Z,31.81
2019-02-06T04:19:03.243Z,32.11
2019-02-06T04:20:03.226Z,31.81
2019-02-06T04:21:03.247Z,31.71
2019-02-06T04:22:03.344Z,32.20
2019-02-06T04:23:03.192Z,31.61
2019-02-06T04:24:03.194Z,32.01
2019-02-06T04:25:03.187Z,31.91
2019-02-06T04:26:03.181Z,32.81
2019-02-06T04:27:03.254Z,32.09
2019-02-06T04:28:03.125Z,31.71
2019-02-06T04:29:03.106Z,31.91
2019-02-06T04:30:03.126Z,31.61
2019-02-06T04:31:03.097Z,31.91
2019-02-06T04:32:03.071Z,32.11
2019-02-06T04:33:03.070Z,31.49
2019-02-06T04:34:03.038Z,31.49
2019-02-06T04:35:03.031Z,32.01
2019-02-06T04:36:03.020Z,32.50
2019-02-06T04:37:06.569Z,31.90
2019-02-06T04:38:03.151Z,31.70
2019-02-06T04:39:03.003Z,32.50
2019-02-06T04:40:02.976Z,31.59
2019-02-06T04:41:03.001Z,32.20
2019-02-06T04:42:02.957Z,31.70
2019-02-06T04:43:04.047Z,31.79
2019-02-06T04:44:02.934Z,31.40
2019-02-06T04:45:02.925Z,31.99
2019-02-06T04:46:02.911Z,31.99
2019-02-06T04:47:02.980Z,32.09
2019-02-06T04:48:02.930Z,32.20
2019-02-06T04:49:02.881Z,32.50
2019-02-06T04:50:02.881Z,31.79
2019-02-06T04:51:02.871Z,31.90
2019-02-06T04:52:02.853Z,32.21
2019-02-06T04:53:02.928Z,32.50
2019-02-06T04:54:02.925Z,31.49
2019-02-06T04:55:02.812Z,31.49
2019-02-06T04:56:02.808Z,31.40
2019-02-06T04:57:02.797Z,31.70
2019-02-06T04:58:02.818Z,32.09
2019-02-06T04:59:02.785Z,31.59
2019-02-06T05:00:02.809Z,31.79
2019-02-06T05:01:02.789Z,31.49
2019-02-06T05:02:02.783Z,31.49
2019-02-06T05:03:02.810Z,30.69
2019-02-06T05:04:02.767Z,31.70
2019-02-06T05:05:02.734Z,31.70
2019-02-06T05:06:02.734Z,32.09
2019-02-06T05:07:02.684Z,31.40
2019-02-06T05:08:02.809Z,32.09
2019-02-06T05:09:02.697Z,31.10
2019-02-06T05:10:02.688Z,31.99
2019-02-06T05:11:02.690Z,31.99
2019-02-06T05:12:02.708Z,32.09
2019-02-06T05:13:02.722Z,31.70
2019-02-06T05:14:02.653Z,31.79
2019-02-06T05:15:02.606Z,31.70
2019-02-06T05:16:02.635Z,30.40
2019-02-06T05:17:02.671Z,31.59
2019-02-06T05:18:32.787Z,31.79
2019-02-06T05:19:02.592Z,31.90
2019-02-06T05:20:02.578Z,32.09
2019-02-06T05:21:02.552Z,32.20
2019-02-06T05:22:02.548Z,31.70
2019-02-06T05:23:02.555Z,31.79
2019-02-06T05:24:02.536Z,31.99
2019-02-06T05:25:02.525Z,31.99
2019-02-06T05:26:02.542Z,31.29
2019-02-06T05:27:02.503Z,31.79
2019-02-06T05:28:02.603Z,30.40
2019-02-06T05:29:02.494Z,31.90
2019-02-06T05:30:02.436Z,31.79
2019-02-06T05:31:02.445Z,31.99
2019-02-06T05:32:02.417Z,31.88
2019-02-06T05:33:02.448Z,31.78
2019-02-06T05:34:02.390Z,31.29
2019-02-06T05:35:02.423Z,30.79
2019-02-06T05:36:02.561Z,32.18
2019-02-06T05:37:02.371Z,31.70
2019-02-06T05:38:02.392Z,32.08
2019-02-06T05:39:02.355Z,31.79
2019-02-06T05:40:02.339Z,31.58
2019-02-06T05:41:02.319Z,31.99
2019-02-06T05:42:02.320Z,30.58
2019-02-06T05:43:02.322Z,31.68
2019-02-06T05:44:02.292Z,31.08
2019-02-06T05:45:02.262Z,31.28
2019-02-06T05:46:02.269Z,30.79
2019-02-06T05:47:02.250Z,30.79
2019-02-06T05:48:02.266Z,30.58
2019-02-06T05:49:02.226Z,31.28
2019-02-06T05:50:02.227Z,31.28
2019-02-06T05:51:02.209Z,32.09
2019-02-06T05:52:02.201Z,31.58
2019-02-06T05:53:02.220Z,31.10
2019-02-06T05:54:02.217Z,31.18
2019-02-06T05:55:04.751Z,30.78
2019-02-06T05:56:02.163Z,31.08
2019-02-06T05:57:02.140Z,30.79
2019-02-06T05:58:02.280Z,31.38
2019-02-06T05:59:02.133Z,30.78
2019-02-06T06:00:02.116Z,31.38
2019-02-06T06:01:02.138Z,29.78
2019-02-06T06:02:02.090Z,30.78
2019-02-06T06:03:02.073Z,30.98
2019-02-06T06:04:02.063Z,29.78
2019-02-06T06:05:02.093Z,30.88
2019-02-06T06:06:02.046Z,31.18
2019-02-06T06:07:02.046Z,30.08
2019-02-06T06:08:02.037Z,29.08
2019-02-06T06:09:02.008Z,26.09
2019-02-06T06:10:02.013Z,27.62
2019-02-06T06:11:01.992Z,28.23
2019-02-06T06:12:01.998Z,28.14
2019-02-06T06:13:01.966Z,28.74
2019-02-06T06:14:02.003Z,29.03
2019-02-06T06:15:01.981Z,28.94
2019-02-06T06:16:01.936Z,28.94
2019-02-06T06:17:01.954Z,30.04
2019-02-06T06:18:01.968Z,29.43
2019-02-06T06:19:03.420Z,29.22
2019-02-06T06:20:01.967Z,29.43
2019-02-06T06:21:01.963Z,29.43
2019-02-06T06:22:01.927Z,29.32
2019-02-06T06:23:11.369Z,29.22
2019-02-06T06:24:01.884Z,29.11
2019-02-06T06:25:01.988Z,28.51
2019-02-06T06:26:01.870Z,29.11
2019-02-06T06:27:01.862Z,28.51
2019-02-06T06:28:01.861Z,27.61
2019-02-06T06:29:01.802Z,26.31
2019-02-06T06:30:01.815Z,26.71
2019-02-06T06:31:01.784Z,25.72
2019-02-06T06:32:01.784Z,26.32
2019-02-06T06:33:01.802Z,25.92
2019-02-06T06:34:01.737Z,27.02
2019-02-06T06:35:01.854Z,27.22
2019-02-06T06:36:01.869Z,28.32
2019-02-06T06:37:01.722Z,27.02
2019-02-06T06:38:02.531Z,28.32
2019-02-06T06:39:01.754Z,28.22
2019-02-06T06:40:01.728Z,28.33
2019-02-06T06:41:01.668Z,28.42
2019-02-06T06:42:01.661Z,28.52
2019-02-06T06:43:02.320Z,28.62
2019-02-06T06:44:01.691Z,29.43
2019-02-06T06:45:01.651Z,29.12
2019-02-06T06:46:01.616Z,29.43
2019-02-06T06:47:01.711Z,28.92
2019-02-06T06:48:01.601Z,30.02
2019-02-06T06:49:01.576Z,29.82
2019-02-06T06:50:01.593Z,29.82
2019-02-06T06:51:01.584Z,29.52
2019-02-06T06:52:03.944Z,29.43
2019-02-06T06:53:01.555Z,30.02
2019-02-06T06:54:01.572Z,29.22
2019-02-06T06:55:01.548Z,30.02
2019-02-06T06:56:01.495Z,29.93
2019-02-06T06:57:01.558Z,29.52
2019-02-06T06:58:01.591Z,30.22
2019-02-06T06:59:01.481Z,30.21
2019-02-06T07:00:01.677Z,29.02
2019-02-06T07:01:01.450Z,30.11
2019-02-06T07:02:01.438Z,30.21
2019-02-06T07:03:01.517Z,30.01
2019-02-06T07:04:01.503Z,29.91
2019-02-06T07:05:01.462Z,30.71
2019-02-06T07:06:03.616Z,30.11
2019-02-06T07:07:01.385Z,29.11
2019-02-06T07:08:09.062Z,29.51
2019-02-06T07:09:01.404Z,30.11
2019-02-06T07:10:01.391Z,29.81
2019-02-06T07:11:01.429Z,30.11
2019-02-06T07:12:01.331Z,30.11
2019-02-06T07:13:01.407Z,30.91
2019-02-06T07:14:01.357Z,30.81
2019-02-06T07:15:01.337Z,27.21
2019-02-06T07:16:01.309Z,27.22
2019-02-06T07:17:01.274Z,26.45
2019-02-06T07:18:01.301Z,27.16
2019-02-06T07:19:01.297Z,26.18
2019-02-06T07:20:01.329Z,25.71
2019-02-06T07:21:01.785Z,26.33
2019-02-06T07:22:01.278Z,26.34
2019-02-06T07:23:01.268Z,26.76
2019-02-06T07:24:01.228Z,28.09
2019-02-06T07:25:01.301Z,27.10
2019-02-06T07:26:01.225Z,27.33
2019-02-06T07:27:01.203Z,27.43
2019-02-06T07:28:01.284Z,27.73
2019-02-06T07:29:01.177Z,28.16
2019-02-06T07:30:01.172Z,27.66
2019-02-06T07:31:01.142Z,27.66
2019-02-06T07:32:01.122Z,27.66
2019-02-06T07:33:01.129Z,27.36
2019-02-06T07:34:01.437Z,27.56
2019-02-06T07:35:01.297Z,27.56
2019-02-06T07:36:01.104Z,27.77
2019-02-06T07:37:01.116Z,27.77
2019-02-06T07:38:01.757Z,27.98
2019-02-06T07:39:01.048Z,28.70
2019-02-06T07:40:01.028Z,29.01
2019-02-06T07:41:01.045Z,29.53
2019-02-06T07:42:01.033Z,29.22
2019-02-06T07:43:01.066Z,30.13
2019-02-06T07:44:01.015Z,29.92
2019-02-06T07:45:01.159Z,30.51
2019-02-06T07:46:01.163Z,30.19
2019-02-06T07:47:01.008Z,30.38
2019-02-06T07:48:00.965Z,29.95
2019-02-06T07:49:02.193Z,29.85
2019-02-06T07:50:00.953Z,30.14
2019-02-06T07:51:00.968Z,30.32
2019-02-06T07:52:00.939Z,30.11
2019-02-06T07:53:00.963Z,30.01
2019-02-06T07:54:00.880Z,29.49
2019-02-06T07:55:00.911Z,29.27
2019-02-06T07:56:01.083Z,30.07
2019-02-06T07:57:00.841Z,29.26
2019-02-06T07:58:00.832Z,29.77
2019-02-06T07:59:00.824Z,30.55
2019-02-06T08:00:00.877Z,29.85
2019-02-06T08:01:00.883Z,28.93
2019-02-06T08:02:00.817Z,29.83
2019-02-06T08:03:00.875Z,30.04
2019-02-06T08:04:00.790Z,30.14
2019-02-06T08:05:00.807Z,29.93
2019-02-06T08:06:00.752Z,29.82
2019-02-06T08:07:00.815Z,30.12
2019-02-06T08:08:00.734Z,30.12
2019-02-06T08:09:00.786Z,29.82
2019-02-06T08:10:00.707Z,29.32
2019-02-06T08:11:02.928Z,29.61
2019-02-06T08:12:00.691Z,28.70
2019-02-06T08:13:00.665Z,29.00
2019-02-06T08:14:00.672Z,29.11
2019-02-06T08:15:00.658Z,29.50
2019-02-06T08:16:00.719Z,29.69
2019-02-06T08:17:00.708Z,29.79
2019-02-06T08:18:00.668Z,29.79
2019-02-06T08:19:00.737Z,30.01
2019-02-06T08:20:00.641Z,30.19
2019-02-06T08:21:00.687Z,29.49
2019-02-06T08:22:00.791Z,29.69
2019-02-06T08:23:00.906Z,29.79
2019-02-06T08:24:00.602Z,29.90
2019-02-06T08:25:00.599Z,30.30
2019-02-06T08:26:00.733Z,29.39
2019-02-06T08:27:00.589Z,30.19
2019-02-06T08:28:00.575Z,30.10
2019-02-06T08:29:01.394Z,29.99
2019-02-06T08:30:00.559Z,29.60
2019-02-06T08:31:00.610Z,29.90
2019-02-06T08:32:00.537Z,30.19
2019-02-06T08:33:00.496Z,28.89
2019-02-06T08:34:00.497Z,29.39
2019-02-06T08:35:01.257Z,29.19
2019-02-06T08:36:00.460Z,29.49
2019-02-06T08:37:00.432Z,29.49
2019-02-06T08:38:00.408Z,29.09
2019-02-06T08:39:00.386Z,29.29
2019-02-06T08:40:00.423Z,29.49
2019-02-06T08:41:01.453Z,28.99
2019-02-06T08:42:00.372Z,29.39
2019-02-06T08:43:00.346Z,28.99
2019-02-06T08:44:01.795Z,29.19
2019-02-06T08:45:00.396Z,29.79
2019-02-06T08:46:00.342Z,29.99
2019-02-06T08:47:00.322Z,28.89
2019-02-06T08:48:00.298Z,29.39
2019-02-06T08:49:00.308Z,29.49
2019-02-06T08:50:00.332Z,29.38
2019-02-06T08:51:00.295Z,29.19
2019-02-06T08:52:00.244Z,29.19
2019-02-06T08:53:00.242Z,29.29
2019-02-06T08:54:00.224Z,29.19
2019-02-06T08:55:00.320Z,29.29
2019-02-06T08:56:06.236Z,29.39
2019-02-06T08:57:00.199Z,29.19
2019-02-06T08:58:00.204Z,28.59
2019-02-06T08:59:00.206Z,29.29
2019-02-06T09:00:00.318Z,28.79
2019-02-06T09:01:00.149Z,29.19
2019-02-06T09:02:00.222Z,28.79
2019-02-06T09:03:00.189Z,29.09
2019-02-06T09:04:00.131Z,28.79
2019-02-06T09:05:00.449Z,29.39
2019-02-06T09:06:00.112Z,29.19
2019-02-06T09:07:00.166Z,28.79
2019-02-06T09:08:00.126Z,28.79
2019-02-06T09:09:00.243Z,28.89
2019-02-06T09:10:00.051Z,29.49
2019-02-06T09:11:00.055Z,28.79
2019-02-06T09:12:00.152Z,29.19
2019-02-06T09:13:00.032Z,28.69
2019-02-06T09:14:00.052Z,28.49
2019-02-06T09:15:00.004Z,28.89
2019-02-06T09:16:00.019Z,27.99
2019-02-06T09:17:00.028Z,28.79
2019-02-06T09:18:00.038Z,28.59
2019-02-06T09:19:00.023Z,28.29
2019-02-06T09:19:59.996Z,28.49
2019-02-06T09:21:00.010Z,28.69
2019-02-06T09:22:00.054Z,28.49
2019-02-06T09:22:59.969Z,28.39
2019-02-06T09:23:59.957Z,28.49
2019-02-06T09:24:59.968Z,28.79
2019-02-06T09:25:59.972Z,28.29
2019-02-06T09:26:59.953Z,29.19
2019-02-06T09:27:59.918Z,28.39
2019-02-06T09:28:59.933Z,28.79
2019-02-06T09:29:59.896Z,27.99
2019-02-06T09:30:59.879Z,28.59
2019-02-06T09:31:59.869Z,28.09
2019-02-06T09:32:59.845Z,28.59
2019-02-06T09:33:59.827Z,28.39
2019-02-06T09:34:59.930Z,28.19
2019-02-06T09:35:59.902Z,28.59
2019-02-06T09:36:59.830Z,28.89
2019-02-06T09:37:59.753Z,28.59
2019-02-06T09:39:10.839Z,28.49
2019-02-06T09:39:59.758Z,28.69
2019-02-06T09:40:59.767Z,28.69
2019-02-06T09:42:00.155Z,28.49
2019-02-06T09:42:59.744Z,28.39
2019-02-06T09:43:59.719Z,28.49
2019-02-06T09:44:59.672Z,28.99
2019-02-06T09:45:59.673Z,28.59
2019-02-06T09:46:59.642Z,28.59
2019-02-06T09:47:59.664Z,28.09
2019-02-06T09:48:59.642Z,28.39
2019-02-06T09:49:59.650Z,28.39
2019-02-06T09:50:59.657Z,28.39
2019-02-06T09:52:00.587Z,28.89
2019-02-06T09:52:59.611Z,29.09
2019-02-06T09:53:59.576Z,28.59
2019-02-06T09:54:59.557Z,28.09
2019-02-06T09:55:59.555Z,28.59
2019-02-06T09:56:59.570Z,29.49
2019-02-06T09:57:59.600Z,28.79
2019-02-06T09:58:59.565Z,28.79
2019-02-06T09:59:59.543Z,29.29
2019-02-06T10:00:59.490Z,29.29
2019-02-06T10:01:59.499Z,29.39
2019-02-06T10:02:59.553Z,29.09
2019-02-06T10:03:59.485Z,29.39
2019-02-06T10:04:59.491Z,29.09
2019-02-06T10:05:59.614Z,29.28
2019-02-06T10:06:59.460Z,29.29
2019-02-06T10:07:59.618Z,28.58
2019-02-06T10:08:59.487Z,29.49
2019-02-06T10:09:59.480Z,29.19
2019-02-06T10:10:59.397Z,28.48
2019-02-06T10:11:59.424Z,29.19
2019-02-06T10:12:59.445Z,28.89
2019-02-06T10:13:59.430Z,29.18
2019-02-06T10:14:59.371Z,29.38
2019-02-06T10:15:59.398Z,29.48
2019-02-06T10:16:59.389Z,28.78
2019-02-06T10:17:59.454Z,28.58
2019-02-06T10:18:59.378Z,28.28
2019-02-06T10:19:59.505Z,28.78
2019-02-06T10:20:59.309Z,29.08
2019-02-06T10:21:59.334Z,29.28
2019-02-06T10:22:59.431Z,29.38
2019-02-06T10:23:59.301Z,29.48
2019-02-06T10:24:59.281Z,29.28
2019-02-06T10:25:59.287Z,29.58
2019-02-06T10:26:59.228Z,29.36
2019-02-06T10:27:59.295Z,29.16
2019-02-06T10:28:59.219Z,29.16
2019-02-06T10:29:59.222Z,28.86
2019-02-06T10:30:59.190Z,28.56
2019-02-06T10:31:59.192Z,28.77
2019-02-06T10:32:59.336Z,28.56
2019-02-06T10:33:59.144Z,28.88
2019-02-06T10:34:59.132Z,28.26
2019-02-06T10:35:59.121Z,29.36
2019-02-06T10:36:59.102Z,29.28
2019-02-06T10:37:59.123Z,29.47
2019-02-06T10:38:59.114Z,29.16
2019-02-06T10:39:59.086Z,29.08
2019-02-06T10:40:59.083Z,29.28
2019-02-06T10:41:59.055Z,29.38
2019-02-06T10:43:00.084Z,29.27
2019-02-06T10:43:59.072Z,29.16
2019-02-06T10:44:59.077Z,29.16
2019-02-06T10:45:59.012Z,29.38
2019-02-06T10:46:59.001Z,29.36
2019-02-06T10:47:59.040Z,29.16
2019-02-06T10:48:58.981Z,29.18
2019-02-06T10:49:58.976Z,29.27
2019-02-06T10:50:58.980Z,29.06
2019-02-06T10:51:58.939Z,30.16
2019-02-06T10:52:58.961Z,30.07
2019-02-06T10:53:59.022Z,29.06
2019-02-06T10:54:58.942Z,29.48
2019-02-06T10:55:58.934Z,28.46
2019-02-06T10:56:58.902Z,29.16
2019-02-06T10:57:58.907Z,29.66
2019-02-06T10:58:58.869Z,28.46
2019-02-06T10:59:58.935Z,28.46
2019-02-06T11:00:58.914Z,28.56
2019-02-06T11:01:58.836Z,29.08
2019-02-06T11:02:58.843Z,29.16
2019-02-06T11:03:58.817Z,28.26
2019-02-06T11:04:58.796Z,28.26
2019-02-06T11:05:58.821Z,28.08
2019-02-06T11:06:58.794Z,28.46
2019-02-06T11:07:58.774Z,28.77
2019-02-06T11:08:58.789Z,28.66
2019-02-06T11:09:58.760Z,28.36
2019-02-06T11:10:58.744Z,29.18
2019-02-06T11:11:58.736Z,28.98
2019-02-06T11:13:01.337Z,28.58
2019-02-06T11:13:58.729Z,29.08
2019-02-06T11:14:58.742Z,28.08
2019-02-06T11:15:58.744Z,27.97
2019-02-06T11:16:58.672Z,28.38
2019-02-06T11:17:59.135Z,28.67
2019-02-06T11:18:58.766Z,28.58
2019-02-06T11:19:58.663Z,28.98
2019-02-06T11:20:58.664Z,28.38
2019-02-06T11:21:58.658Z,28.28
2019-02-06T11:22:58.677Z,28.77
2019-02-06T11:23:58.740Z,28.16
2019-02-06T11:24:58.600Z,28.26
2019-02-06T11:25:58.651Z,27.86
2019-02-06T11:26:58.585Z,28.86
2019-02-06T11:27:58.610Z,28.46
2019-02-06T11:28:58.727Z,28.77
2019-02-06T11:29:58.682Z,27.96
2019-02-06T11:30:58.515Z,28.26
2019-02-06T11:31:58.504Z,29.36
2019-02-06T11:32:58.507Z,28.06
2019-02-06T11:33:58.511Z,28.56
2019-02-06T11:34:58.487Z,27.86
2019-02-06T11:35:58.460Z,28.56
2019-02-06T11:36:58.448Z,28.86
2019-02-06T11:37:58.474Z,27.96
2019-02-06T11:38:58.472Z,28.15
2019-02-06T11:39:58.446Z,28.55
2019-02-06T11:40:58.410Z,27.95
2019-02-06T11:41:58.429Z,29.06
2019-02-06T11:42:58.472Z,27.95
2019-02-06T11:43:58.461Z,27.46
2019-02-06T11:44:58.379Z,28.35
2019-02-06T11:45:58.353Z,28.45
2019-02-06T11:46:58.373Z,28.35
2019-02-06T11:47:58.353Z,28.15
2019-02-06T11:48:58.453Z,27.95
2019-02-06T11:49:58.361Z,27.95
2019-02-06T11:50:58.312Z,28.15
2019-02-06T11:51:58.311Z,28.75
2019-02-06T11:52:58.289Z,27.95
2019-02-06T11:53:58.290Z,28.45
2019-02-06T11:54:58.295Z,27.35
2019-02-06T11:55:58.992Z,27.95
2019-02-06T11:56:58.929Z,26.95
2019-02-06T11:57:58.232Z,28.45
2019-02-06T11:58:58.249Z,28.45
2019-02-06T11:59:58.546Z,28.95
2019-02-06T12:00:58.186Z,28.84
2019-02-06T12:01:58.247Z,28.35
2019-02-06T12:02:58.288Z,27.95
2019-02-06T12:03:58.198Z,27.53
2019-02-06T12:04:58.147Z,28.33
2019-02-06T12:05:58.154Z,27.14
2019-02-06T12:06:58.205Z,28.33
2019-02-06T12:07:58.126Z,28.53
2019-02-06T12:08:58.202Z,28.33
2019-02-06T12:10:09.023Z,28.44
2019-02-06T12:10:58.093Z,28.33
2019-02-06T12:11:58.130Z,26.92
2019-02-06T12:12:58.091Z,28.42
2019-02-06T12:13:58.204Z,27.22
2019-02-06T12:14:59.437Z,27.42
2019-02-06T12:15:58.357Z,27.72
2019-02-06T12:16:58.035Z,27.72
2019-02-06T12:17:58.094Z,28.92
2019-02-06T12:18:58.079Z,28.32
2019-02-06T12:19:58.061Z,27.22
2019-02-06T12:21:02.675Z,27.82
2019-02-06T12:21:57.992Z,27.91
2019-02-06T12:22:58.020Z,28.31
2019-02-06T12:23:58.286Z,28.02
2019-02-06T12:24:58.079Z,28.12
2019-02-06T12:25:58.306Z,28.02
2019-02-06T12:26:57.958Z,28.22
2019-02-06T12:27:58.059Z,28.42
2019-02-06T12:28:57.911Z,27.72
2019-02-06T12:29:57.948Z,27.92
2019-02-06T12:30:57.941Z,27.82
2019-02-06T12:31:57.870Z,28.22
2019-02-06T12:32:57.861Z,27.94
2019-02-06T12:33:57.842Z,28.44
2019-02-06T12:34:57.835Z,28.53
2019-02-06T12:36:04.089Z,29.03
2019-02-06T12:36:57.825Z,29.03
2019-02-06T12:37:57.999Z,28.23
2019-02-06T12:38:57.806Z,27.83
2019-02-06T12:39:57.807Z,28.53
2019-02-06T12:40:57.829Z,28.14
2019-02-06T12:41:57.752Z,28.33
2019-02-06T12:42:58.393Z,27.23
2019-02-06T12:43:57.725Z,28.14
2019-02-06T12:44:59.143Z,27.44
2019-02-06T12:45:57.705Z,28.64
2019-02-06T12:46:57.694Z,28.44
2019-02-06T12:47:57.682Z,28.33
2019-02-06T12:48:57.674Z,28.44
2019-02-06T12:49:57.696Z,28.74
2019-02-06T12:50:57.650Z,27.94
2019-02-06T12:51:57.699Z,28.23